Time;durP1;ratioP1;P1;durP2;ratioP2;P2;SDS_P1;SDS_P2;PMS_P1;PMS_P2;Temp;Humidity;BMP_temperature;BMP_pressure;BME280_temperature;BME280_humidity;BME280_pressure;Samples;Min_cycle;Max_cycle;Signal;HPM_P1;HPM_P2
2023/11/30 00:01:02;;;;;;;19.70;10.90;;;-1.60;99.90;;;;;;4191767;28;20270;-57
2023/11/30 00:03:03;;;;;;;23.13;11.50;;;-1.60;99.90;;;;;;4192218;28;20657;-60
2023/11/30 00:05:07;;;;;;;25.07;12.13;;;-1.60;99.90;;;;;;4191959;28;20335;-59
2023/11/30 00:07:11;;;;;;;29.67;13.80;;;-1.60;99.90;;;;;;4191845;28;20319;-59
2023/11/30 00:09:12;;;;;;;24.30;12.57;;;-1.60;99.90;;;;;;4192340;28;20749;-59
2023/11/30 00:11:13;;;;;;;24.90;11.53;;;-1.60;99.90;;;;;;4190921;28;20676;-59
2023/11/30 00:13:14;;;;;;;25.63;12.33;;;-1.60;99.90;;;;;;4182201;28;20607;-59
2023/11/30 00:15:15;;;;;;;24.80;11.80;;;-1.70;99.90;;;;;;4192282;28;20807;-60
2023/11/30 00:17:16;;;;;;;23.87;11.50;;;-1.70;99.90;;;;;;4191385;28;20330;-59
2023/11/30 00:19:17;;;;;;;24.53;12.70;;;-1.80;99.90;;;;;;4190896;28;20274;-60
2023/11/30 00:21:18;;;;;;;26.57;13.00;;;-1.80;99.90;;;;;;4191943;28;20277;-57
2023/11/30 00:23:20;;;;;;;26.00;11.90;;;-1.80;99.90;;;;;;4190942;28;20789;-59
2023/11/30 00:25:21;;;;;;;25.67;13.20;;;-1.80;99.90;;;;;;4192340;28;20346;-56
2023/11/30 00:27:22;;;;;;;25.63;12.40;;;-1.90;99.90;;;;;;4190948;28;20281;-60
2023/11/30 00:29:23;;;;;;;26.10;13.03;;;-1.90;99.90;;;;;;4192645;28;20311;-59
2023/11/30 00:31:25;;;;;;;26.67;13.80;;;-1.90;99.90;;;;;;4192330;28;20672;-59
2023/11/30 00:33:26;;;;;;;26.93;13.33;;;-1.90;99.90;;;;;;4191937;28;20760;-58
2023/11/30 00:35:27;;;;;;;29.93;13.07;;;-2.00;99.90;;;;;;4192586;28;20347;-59
2023/11/30 00:37:28;;;;;;;28.67;13.33;;;-2.00;99.90;;;;;;4192320;28;20633;-60
2023/11/30 00:39:29;;;;;;;27.20;13.60;;;-2.00;99.90;;;;;;4191932;28;20322;-60
2023/11/30 00:41:30;;;;;;;27.33;12.07;;;-2.00;99.90;;;;;;4191331;28;20270;-59
2023/11/30 00:43:32;;;;;;;26.00;13.17;;;-2.00;99.90;;;;;;4192194;28;20631;-57
2023/11/30 00:45:33;;;;;;;26.17;13.07;;;-2.00;99.90;;;;;;4190761;28;20362;-60
2023/11/30 00:47:34;;;;;;;26.17;12.77;;;-2.10;99.90;;;;;;4192737;28;20754;-60
2023/11/30 00:49:35;;;;;;;25.57;10.87;;;-2.10;99.90;;;;;;4178506;28;20273;-60
2023/11/30 00:51:36;;;;;;;20.70;10.80;;;-2.20;99.90;;;;;;4164600;28;20270;-60
2023/11/30 00:53:38;;;;;;;21.70;10.93;;;-2.20;99.90;;;;;;4194516;28;20295;-60
2023/11/30 00:55:39;;;;;;;23.43;10.37;;;-2.20;99.90;;;;;;4195237;28;20295;-58
2023/11/30 00:57:41;;;;;;;20.20;10.90;;;-2.20;99.90;;;;;;4176204;28;20328;-60
2023/11/30 00:59:42;;;;;;;22.23;10.27;;;-2.20;99.90;;;;;;4195211;28;20262;-61
2023/11/30 01:01:44;;;;;;;18.57;10.03;;;-2.20;99.90;;;;;;4194295;28;20319;-60
2023/11/30 01:03:45;;;;;;;21.50;10.27;;;-2.20;99.90;;;;;;4195165;28;20733;-58
2023/11/30 01:05:46;;;;;;;20.17;10.77;;;-2.20;99.90;;;;;;4194401;28;20807;-59
2023/11/30 01:07:47;;;;;;;20.50;10.60;;;-2.30;99.90;;;;;;4194419;28;20297;-59
2023/11/30 01:09:48;;;;;;;23.27;10.77;;;-2.30;99.90;;;;;;4195164;28;20343;-60
2023/11/30 01:11:49;;;;;;;23.63;11.90;;;-2.30;99.90;;;;;;4193670;28;20281;-58
2023/11/30 01:13:50;;;;;;;22.10;10.80;;;-2.30;99.90;;;;;;4195025;28;20269;-59
2023/11/30 01:15:51;;;;;;;25.37;11.57;;;-2.30;99.90;;;;;;4194471;28;20330;-60
2023/11/30 01:17:52;;;;;;;25.73;11.40;;;-2.40;99.90;;;;;;4194185;28;20261;-59
2023/11/30 01:19:53;;;;;;;25.80;11.77;;;-2.40;99.90;;;;;;4194304;28;20262;-58
2023/11/30 01:21:54;;;;;;;19.47;10.13;;;-2.40;99.90;;;;;;4194935;28;20729;-58
2023/11/30 01:23:55;;;;;;;24.07;11.40;;;-2.40;99.90;;;;;;4193175;28;20481;-60
2023/11/30 01:25:56;;;;;;;22.63;10.90;;;-2.50;99.90;;;;;;4194828;28;20782;-57
2023/11/30 01:27:58;;;;;;;25.37;12.30;;;-2.50;99.90;;;;;;4193107;28;20664;-60
2023/11/30 01:29:59;;;;;;;23.07;11.53;;;-2.50;99.90;;;;;;4194900;28;20273;-59
2023/11/30 01:32:00;;;;;;;30.53;14.03;;;-2.50;99.90;;;;;;4194393;28;20257;-57
2023/11/30 01:34:01;;;;;;;30.17;14.87;;;-2.50;99.90;;;;;;4192658;28;20277;-59
2023/11/30 01:36:03;;;;;;;31.87;14.97;;;-2.50;99.90;;;;;;4194783;28;20291;-59
2023/11/30 01:38:05;;;;;;;31.90;14.80;;;-2.60;99.90;;;;;;4193043;28;20273;-58
2023/11/30 01:40:09;;;;;;;32.07;15.17;;;-2.60;99.90;;;;;;4194187;28;20258;-58
2023/11/30 01:42:11;;;;;;;31.00;14.07;;;-2.60;99.90;;;;;;4194354;28;20261;-60
2023/11/30 01:44:12;;;;;;;35.00;15.67;;;-2.70;99.90;;;;;;4193737;28;20269;-59
2023/11/30 01:46:13;;;;;;;30.37;13.87;;;-2.70;99.90;;;;;;4194114;28;20342;-60
2023/11/30 01:48:16;;;;;;;31.17;14.13;;;-2.70;99.90;;;;;;4194540;28;20342;-59
2023/11/30 01:50:18;;;;;;;33.63;15.33;;;-2.80;99.90;;;;;;4193400;28;20319;-59
2023/11/30 01:52:19;;;;;;;35.00;15.60;;;-2.80;99.90;;;;;;4194443;28;20319;-60
2023/11/30 01:54:20;;;;;;;38.80;15.17;;;-2.80;99.90;;;;;;4192761;28;20262;-60
2023/11/30 01:56:22;;;;;;;29.03;14.07;;;-2.80;99.90;;;;;;4194317;28;20737;-59
2023/11/30 01:58:23;;;;;;;25.17;13.07;;;-2.80;99.90;;;;;;4192850;28;20323;-60
2023/11/30 02:00:25;;;;;;;35.53;15.90;;;-2.80;99.90;;;;;;4192627;28;20330;-58
2023/11/30 02:02:28;;;;;;;37.33;16.40;;;-2.90;99.90;;;;;;4191070;28;20311;-59
2023/11/30 02:04:33;;;;;;;32.13;14.67;;;-2.90;99.90;;;;;;4192180;28;20323;-58
2023/11/30 02:06:34;;;;;;;29.03;14.50;;;-2.90;99.90;;;;;;4194612;28;20289;-58
2023/11/30 02:08:35;;;;;;;30.70;13.57;;;-2.90;99.90;;;;;;4192835;28;20265;-60
2023/11/30 02:10:36;;;;;;;29.63;14.00;;;-2.90;99.90;;;;;;4193698;28;20257;-57
2023/11/30 02:12:37;;;;;;;25.20;13.27;;;-2.90;99.90;;;;;;4193535;28;20277;-58
2023/11/30 02:14:38;;;;;;;28.77;12.97;;;-3.00;99.90;;;;;;4193917;28;20273;-57
2023/11/30 02:16:39;;;;;;;30.57;14.57;;;-3.00;99.90;;;;;;4193612;28;20281;-59
2023/11/30 02:18:40;;;;;;;29.23;13.70;;;-3.00;99.90;;;;;;4194333;28;20269;-59
2023/11/30 02:20:41;;;;;;;33.23;14.80;;;-3.00;99.90;;;;;;4193624;28;20258;-55
2023/11/30 02:22:43;;;;;;;31.30;14.30;;;-2.90;99.90;;;;;;4193416;28;20253;-58
2023/11/30 02:24:44;;;;;;;28.83;13.77;;;-2.90;99.90;;;;;;4193037;28;20331;-58
2023/11/30 02:26:45;;;;;;;31.50;14.43;;;-2.90;99.90;;;;;;4193218;28;20359;-58
2023/11/30 02:28:46;;;;;;;37.43;16.50;;;-2.90;99.90;;;;;;4192726;28;20273;-60
2023/11/30 02:30:49;;;;;;;34.67;16.30;;;-2.90;99.90;;;;;;4193955;28;20838;-59
2023/11/30 02:32:50;;;;;;;36.73;16.93;;;-2.90;99.90;;;;;;4193211;28;20269;-59
2023/11/30 02:34:51;;;;;;;36.27;16.77;;;-2.90;99.90;;;;;;4193858;28;20326;-60
2023/11/30 02:36:52;;;;;;;33.47;15.97;;;-2.90;99.90;;;;;;4193178;28;20281;-60
2023/11/30 02:38:53;;;;;;;31.47;15.80;;;-2.90;99.90;;;;;;4193580;28;20282;-59
2023/11/30 02:40:54;;;;;;;34.13;16.37;;;-3.00;99.90;;;;;;4193521;28;20277;-58
2023/11/30 02:42:56;;;;;;;32.47;14.77;;;-2.90;99.90;;;;;;4192247;28;20323;-60
2023/11/30 02:44:57;;;;;;;33.53;15.30;;;-2.90;99.90;;;;;;4193348;28;20775;-62
2023/11/30 02:46:58;;;;;;;40.47;19.03;;;-2.90;99.90;;;;;;4193426;28;20684;-60
2023/11/30 02:48:59;;;;;;;35.70;17.13;;;-2.90;99.90;;;;;;4192452;28;20258;-59
2023/11/30 02:51:00;;;;;;;31.70;16.40;;;-2.90;99.90;;;;;;4193153;28;20331;-60
2023/11/30 02:53:01;;;;;;;29.73;14.53;;;-3.00;99.90;;;;;;4192778;28;20826;-60
2023/11/30 02:55:02;;;;;;;28.83;14.07;;;-3.00;99.90;;;;;;4191773;28;20672;-59
2023/11/30 02:57:04;;;;;;;29.90;14.57;;;-3.00;99.90;;;;;;4192443;28;20327;-62
2023/11/30 02:59:05;;;;;;;27.97;13.33;;;-3.00;99.90;;;;;;4192395;28;20681;-61
2023/11/30 03:01:06;;;;;;;31.03;13.37;;;-3.00;99.90;;;;;;4174911;28;20689;-60
2023/11/30 03:03:07;;;;;;;24.27;12.53;;;-3.00;99.90;;;;;;4174113;28;20960;-60
2023/11/30 03:05:08;;;;;;;30.73;14.80;;;-2.90;99.90;;;;;;4193207;28;20274;-60
2023/11/30 03:07:09;;;;;;;28.70;13.57;;;-3.00;99.90;;;;;;4193193;28;20293;-58
2023/11/30 03:09:11;;;;;;;28.03;13.40;;;-3.00;99.90;;;;;;4192565;28;20327;-59
2023/11/30 03:11:12;;;;;;;26.03;13.33;;;-3.00;99.90;;;;;;4192524;28;20292;-61
2023/11/30 03:13:13;;;;;;;33.50;15.03;;;-3.00;99.90;;;;;;4192610;28;20269;-59
2023/11/30 03:15:18;;;;;;;30.83;14.27;;;-3.00;99.90;;;;;;4193187;28;20311;-57
2023/11/30 03:17:19;;;;;;;33.37;15.47;;;-3.10;99.90;;;;;;4191981;28;20925;-61
2023/11/30 03:19:20;;;;;;;28.77;13.90;;;-3.20;99.90;;;;;;4193220;28;20307;-61
2023/11/30 03:21:21;;;;;;;33.03;15.47;;;-3.20;99.90;;;;;;4192291;28;20307;-60
2023/11/30 03:23:22;;;;;;;33.37;15.17;;;-3.20;99.90;;;;;;4193246;28;20362;-59
2023/11/30 03:25:23;;;;;;;32.43;15.77;;;-3.20;99.90;;;;;;4191898;28;20907;-59
2023/11/30 03:27:24;;;;;;;36.00;15.33;;;-3.30;99.90;;;;;;4192501;28;20743;-59
2023/11/30 03:29:27;;;;;;;36.43;17.03;;;-3.40;99.90;;;;;;4191969;28;20672;-58
2023/11/30 03:31:28;;;;;;;33.90;15.70;;;-3.50;99.90;;;;;;4193200;28;20265;-60
2023/11/30 03:33:29;;;;;;;31.70;15.40;;;-3.40;99.90;;;;;;4192405;28;20764;-59
2023/11/30 03:35:30;;;;;;;31.27;14.57;;;-3.40;99.90;;;;;;4192885;28;20269;-60
2023/11/30 03:37:31;;;;;;;34.10;14.80;;;-3.40;99.90;;;;;;4192628;28;20269;-54
2023/11/30 03:39:32;;;;;;;33.03;14.70;;;-3.40;99.90;;;;;;4192340;28;20273;-60
2023/11/30 03:41:33;;;;;;;34.97;14.37;;;-3.40;99.90;;;;;;4193026;28;20270;-59
2023/11/30 03:43:34;;;;;;;33.23;15.00;;;-3.40;99.90;;;;;;4191735;28;20269;-60
2023/11/30 03:45:35;;;;;;;35.70;15.90;;;-3.40;99.90;;;;;;4192811;28;20334;-59
2023/11/30 03:47:37;;;;;;;31.77;14.33;;;-3.30;99.90;;;;;;4191844;28;20362;-59
2023/11/30 03:49:38;;;;;;;33.27;14.00;;;-3.30;99.90;;;;;;4191991;28;20335;-59
2023/11/30 03:51:39;;;;;;;32.10;14.43;;;-3.30;99.90;;;;;;4192116;28;20309;-60
2023/11/30 03:53:40;;;;;;;27.37;14.07;;;-3.30;99.90;;;;;;4192173;28;20339;-58
2023/11/30 03:55:41;;;;;;;30.33;13.90;;;-3.30;99.90;;;;;;4190937;28;20265;-59
2023/11/30 03:57:42;;;;;;;33.17;15.57;;;-3.30;99.90;;;;;;4191754;28;20270;-60
2023/11/30 03:59:43;;;;;;;32.73;14.57;;;-3.30;99.90;;;;;;4192187;28;20266;-60
2023/11/30 04:01:44;;;;;;;37.63;16.53;;;-3.40;99.90;;;;;;4191928;28;20293;-58
2023/11/30 04:03:45;;;;;;;30.53;15.40;;;-3.40;99.90;;;;;;4191648;28;20338;-59
2023/11/30 04:05:46;;;;;;;26.63;14.33;;;-3.40;99.90;;;;;;4191920;28;20319;-59
2023/11/30 04:07:47;;;;;;;29.07;14.23;;;-3.40;99.90;;;;;;4192103;28;20370;-60
2023/11/30 04:09:49;;;;;;;32.60;14.40;;;-3.40;99.90;;;;;;4191985;28;20375;-57
2023/11/30 04:11:50;;;;;;;34.13;14.67;;;-3.40;99.90;;;;;;4190499;28;20318;-59
2023/11/30 04:13:51;;;;;;;30.93;13.23;;;-3.50;99.90;;;;;;4174991;28;20286;-59
2023/11/30 04:15:52;;;;;;;30.73;14.33;;;-3.50;99.90;;;;;;4174683;28;20262;-59
2023/11/30 04:17:54;;;;;;;33.60;14.77;;;-3.50;99.90;;;;;;4175706;28;20305;-60
2023/11/30 04:19:55;;;;;;;27.77;14.37;;;-3.50;99.90;;;;;;4175607;28;20366;-59
2023/11/30 04:21:56;;;;;;;31.70;13.70;;;-3.50;99.90;;;;;;4175149;28;20266;-60
2023/11/30 04:23:57;;;;;;;32.17;14.47;;;-3.50;99.90;;;;;;4178395;28;20704;-58
2023/11/30 04:25:59;;;;;;;32.90;15.50;;;-3.50;99.90;;;;;;4182415;28;20266;-57
2023/11/30 04:28:00;;;;;;;32.23;15.70;;;-3.50;99.90;;;;;;4194844;28;20681;-60
2023/11/30 04:30:02;;;;;;;33.73;16.03;;;-3.50;99.90;;;;;;4195295;28;20672;-59
2023/11/30 04:32:04;;;;;;;33.17;15.60;;;-3.60;99.90;;;;;;4161694;28;20262;-60
2023/11/30 04:34:05;;;;;;;42.93;18.33;;;-3.70;99.90;;;;;;4178135;28;20271;-59
2023/11/30 04:36:06;;;;;;;44.33;19.73;;;-3.70;99.90;;;;;;4179580;28;20544;-59
2023/11/30 04:38:07;;;;;;;43.27;18.87;;;-3.80;99.90;;;;;;4192236;28;20265;-59
2023/11/30 04:40:09;;;;;;;36.63;16.80;;;-3.80;99.90;;;;;;4195426;28;20790;-58
2023/11/30 04:42:10;;;;;;;36.30;17.33;;;-3.90;99.90;;;;;;4202674;28;20273;-59
2023/11/30 04:44:12;;;;;;;43.87;18.60;;;-3.90;99.90;;;;;;4195042;28;20750;-59
2023/11/30 04:46:14;;;;;;;38.63;17.97;;;-3.90;99.90;;;;;;4195064;28;20319;-58
2023/11/30 04:48:15;;;;;;;38.17;17.00;;;-3.90;99.90;;;;;;4195272;28;20269;-60
2023/11/30 04:50:16;;;;;;;36.87;16.53;;;-3.90;99.90;;;;;;4195325;28;20742;-57
2023/11/30 04:52:17;;;;;;;42.73;20.10;;;-3.90;99.90;;;;;;4194354;28;20277;-59
2023/11/30 04:54:18;;;;;;;36.73;18.37;;;-3.90;99.90;;;;;;4195035;28;20323;-58
2023/11/30 04:56:19;;;;;;;37.23;18.17;;;-3.90;99.90;;;;;;4194617;28;20652;-60
2023/11/30 04:58:20;;;;;;;48.73;22.97;;;-3.90;99.90;;;;;;4195461;28;20319;-59
2023/11/30 05:00:21;;;;;;;51.10;21.67;;;-4.00;99.90;;;;;;4193956;28;20311;-58
2023/11/30 05:02:22;;;;;;;48.43;23.03;;;-4.00;99.90;;;;;;4195474;28;20791;-59
2023/11/30 05:04:23;;;;;;;44.07;20.37;;;-4.00;99.90;;;;;;4194076;28;20583;-58
2023/11/30 05:06:25;;;;;;;39.97;20.57;;;-4.10;99.90;;;;;;4195329;28;20301;-61
2023/11/30 05:08:26;;;;;;;39.33;17.87;;;-4.10;99.90;;;;;;4194648;28;20306;-59
2023/11/30 05:10:27;;;;;;;34.93;16.73;;;-4.20;99.90;;;;;;4193216;28;20335;-60
2023/11/30 05:12:28;;;;;;;29.60;14.33;;;-4.20;99.90;;;;;;4194460;28;20376;-60
2023/11/30 05:14:29;;;;;;;31.97;14.83;;;-4.20;99.90;;;;;;4194563;28;20703;-57
2023/11/30 05:16:30;;;;;;;35.10;16.20;;;-4.20;99.90;;;;;;4193845;28;20319;-59
2023/11/30 05:18:31;;;;;;;32.90;15.73;;;-4.20;99.90;;;;;;4194149;28;20273;-60
2023/11/30 05:20:32;;;;;;;34.00;16.43;;;-4.20;99.90;;;;;;4193399;28;20266;-60
2023/11/30 05:22:34;;;;;;;36.10;16.87;;;-4.20;99.90;;;;;;4192811;28;20265;-60
2023/11/30 05:24:35;;;;;;;33.33;16.40;;;-4.20;99.90;;;;;;4193865;28;20684;-60
2023/11/30 05:26:36;;;;;;;39.23;16.33;;;-4.20;99.90;;;;;;4193585;28;20294;-60
2023/11/30 05:28:37;;;;;;;39.37;17.70;;;-4.20;99.90;;;;;;4193707;28;20291;-61
2023/11/30 05:30:39;;;;;;;39.07;18.43;;;-4.20;99.90;;;;;;4193015;28;20343;-60
2023/11/30 05:32:40;;;;;;;39.17;17.87;;;-4.20;99.90;;;;;;4194483;28;20334;-60
2023/11/30 05:34:42;;;;;;;48.37;21.63;;;-4.20;99.90;;;;;;4192877;28;20270;-60
2023/11/30 05:36:43;;;;;;;56.47;23.80;;;-4.20;99.90;;;;;;4194079;28;20742;-59
2023/11/30 05:38:44;;;;;;;43.87;20.63;;;-4.20;99.90;;;;;;4175976;28;20340;-60
2023/11/30 05:40:45;;;;;;;44.30;21.53;;;-4.20;99.90;;;;;;4193283;28;20354;-59
2023/11/30 05:42:47;;;;;;;46.53;20.37;;;-4.30;99.90;;;;;;4192654;28;20648;-60
2023/11/30 05:44:49;;;;;;;41.77;21.07;;;-4.30;99.90;;;;;;4193374;28;20339;-61
2023/11/30 05:46:50;;;;;;;45.43;21.53;;;-4.30;99.90;;;;;;4193280;28;20359;-60
2023/11/30 05:48:51;;;;;;;45.57;21.80;;;-4.30;99.90;;;;;;4175105;28;20262;-58
2023/11/30 05:50:52;;;;;;;44.83;22.00;;;-4.30;99.90;;;;;;4193340;28;20310;-58
2023/11/30 05:52:53;;;;;;;42.30;18.40;;;-4.30;99.90;;;;;;4194343;28;20277;-59
2023/11/30 05:54:57;;;;;;;44.43;20.03;;;-4.30;99.90;;;;;;4194351;28;20609;-60
2023/11/30 05:56:58;;;;;;;43.17;19.83;;;-4.30;99.90;;;;;;4193756;28;20269;-59
2023/11/30 05:58:59;;;;;;;44.63;20.03;;;-4.30;99.90;;;;;;4192411;28;20282;-59
2023/11/30 06:01:01;;;;;;;42.10;17.53;;;-4.20;99.90;;;;;;4193049;28;20323;-60
2023/11/30 06:03:03;;;;;;;35.27;16.97;;;-4.00;99.90;;;;;;4193954;28;20273;-59
2023/11/30 06:05:05;;;;;;;33.87;16.20;;;-3.90;99.90;;;;;;4174592;28;20282;-59
2023/11/30 06:07:06;;;;;;;34.87;16.83;;;-3.80;99.90;;;;;;4181604;28;20372;-60
2023/11/30 06:09:07;;;;;;;38.30;16.40;;;-3.60;99.90;;;;;;4180776;28;20654;-60
2023/11/30 06:11:08;;;;;;;40.70;16.40;;;-3.60;99.90;;;;;;4192475;28;20269;-60
2023/11/30 06:13:10;;;;;;;35.67;16.17;;;-3.50;99.90;;;;;;4191874;28;20273;-60
2023/11/30 06:15:11;;;;;;;34.83;16.17;;;-3.50;99.90;;;;;;4192424;28;20366;-60
2023/11/30 06:17:12;;;;;;;38.07;17.87;;;-3.50;99.90;;;;;;4192881;28;20334;-59
2023/11/30 06:19:14;;;;;;;36.63;17.00;;;-3.40;99.90;;;;;;4192617;28;20315;-59
2023/11/30 06:21:16;;;;;;;36.07;17.00;;;-3.40;99.90;;;;;;4191874;28;20262;-59
2023/11/30 06:23:17;;;;;;;33.60;16.43;;;-3.30;99.90;;;;;;4192511;28;20273;-60
2023/11/30 06:25:19;;;;;;;33.60;14.37;;;-3.20;99.90;;;;;;4193584;28;20323;-60
2023/11/30 06:27:20;;;;;;;31.83;14.90;;;-3.20;99.90;;;;;;4192589;28;20301;-59
2023/11/30 06:29:21;;;;;;;34.03;15.33;;;-3.20;99.90;;;;;;4193263;28;20331;-58
2023/11/30 06:31:22;;;;;;;33.73;15.17;;;-3.20;99.90;;;;;;4191652;28;20329;-60
2023/11/30 06:33:23;;;;;;;38.23;16.97;;;-3.10;99.90;;;;;;4192468;28;20339;-60
2023/11/30 06:35:24;;;;;;;31.00;14.10;;;-3.10;99.90;;;;;;4191360;28;20800;-59
2023/11/30 06:37:26;;;;;;;32.93;15.33;;;-3.10;99.90;;;;;;4174602;28;20286;-60
2023/11/30 06:39:28;;;;;;;32.53;16.10;;;-3.10;99.90;;;;;;4192545;28;20664;-60
2023/11/30 06:41:29;;;;;;;38.47;17.27;;;-3.10;99.90;;;;;;4192522;28;20323;-60
2023/11/30 06:43:30;;;;;;;31.37;14.97;;;-3.20;99.90;;;;;;4191994;28;20261;-58
2023/11/30 06:45:31;;;;;;;36.60;16.30;;;-3.20;99.90;;;;;;4191658;28;20741;-59
2023/11/30 06:47:32;;;;;;;27.53;14.07;;;-3.10;99.90;;;;;;4192051;28;20301;-59
2023/11/30 06:49:34;;;;;;;29.47;14.37;;;-3.00;99.90;;;;;;4192219;28;20315;-60
2023/11/30 06:51:35;;;;;;;32.07;15.63;;;-2.80;99.90;;;;;;4192069;28;20338;-61
2023/11/30 06:53:36;;;;;;;30.77;13.53;;;-2.80;99.90;;;;;;4192557;28;20295;-61
2023/11/30 06:55:37;;;;;;;34.70;14.63;;;-2.70;99.90;;;;;;4192970;28;20319;-59
2023/11/30 06:57:38;;;;;;;31.87;14.87;;;-2.60;99.90;;;;;;4191609;28;20759;-61
2023/11/30 06:59:39;;;;;;;29.30;15.23;;;-2.50;99.90;;;;;;4192643;28;20323;-61
2023/11/30 07:01:40;;;;;;;29.20;15.30;;;-2.50;99.90;;;;;;4191723;28;20343;-59
2023/11/30 07:03:42;;;;;;;30.70;13.97;;;-2.50;99.90;;;;;;4192149;28;20269;-61
2023/11/30 07:05:43;;;;;;;33.77;15.67;;;-2.50;99.90;;;;;;4190951;28;20805;-59
2023/11/30 07:07:44;;;;;;;32.77;15.10;;;-2.50;99.90;;;;;;4192390;28;20297;-60
2023/11/30 07:09:45;;;;;;;31.13;13.83;;;-2.50;99.90;;;;;;4190945;28;20335;-60
2023/11/30 07:11:46;;;;;;;28.37;14.20;;;-2.40;99.90;;;;;;4192256;28;20358;-61
2023/11/30 07:13:47;;;;;;;35.97;17.43;;;-2.40;99.90;;;;;;4192517;28;20273;-61
2023/11/30 07:15:48;;;;;;;32.00;15.83;;;-2.30;99.90;;;;;;4191636;28;20761;-61
2023/11/30 07:17:49;;;;;;;32.23;14.37;;;-2.20;99.90;;;;;;4191865;28;20771;-61
2023/11/30 07:19:51;;;;;;;33.07;15.17;;;-2.10;99.90;;;;;;4192432;28;20273;-60
2023/11/30 07:21:52;;;;;;;29.50;14.63;;;-2.10;99.90;;;;;;4190721;28;20290;-60
2023/11/30 07:23:54;;;;;;;31.53;14.53;;;-2.00;99.90;;;;;;4191989;28;20318;-61
2023/11/30 07:25:58;;;;;;;31.77;14.70;;;-1.90;99.90;;;;;;4192884;28;20759;-61
2023/11/30 07:27:59;;;;;;;33.97;16.23;;;-1.90;99.90;;;;;;4191320;28;20309;-60
2023/11/30 07:30:00;;;;;;;34.23;15.00;;;-1.80;99.90;;;;;;4192912;28;20286;-61
2023/11/30 07:32:02;;;;;;;31.57;15.07;;;-1.70;99.90;;;;;;4190307;28;20354;-61
2023/11/30 07:34:04;;;;;;;33.27;15.03;;;-1.70;99.90;;;;;;4173889;28;20278;-58
2023/11/30 07:36:07;;;;;;;28.13;13.50;;;-1.80;99.90;;;;;;4192012;28;20826;-61
2023/11/30 07:38:08;;;;;;;30.63;14.40;;;-1.90;99.90;;;;;;4192241;28;20560;-61
2023/11/30 07:40:09;;;;;;;31.10;14.07;;;-1.90;99.90;;;;;;4191299;28;20323;-61
2023/11/30 07:42:11;;;;;;;31.20;14.53;;;-1.90;99.90;;;;;;4192136;28;20265;-61
2023/11/30 07:44:12;;;;;;;29.43;14.87;;;-1.70;99.90;;;;;;4190824;28;20269;-59
2023/11/30 07:46:14;;;;;;;27.30;13.03;;;-1.60;99.90;;;;;;4191854;28;20269;-60
2023/11/30 07:48:15;;;;;;;27.23;13.80;;;-1.50;99.90;;;;;;4191978;28;20331;-61
2023/11/30 07:50:16;;;;;;;26.83;12.80;;;-1.30;99.90;;;;;;4192362;28;20269;-61
2023/11/30 07:52:17;;;;;;;26.77;12.80;;;-1.10;99.90;;;;;;4191521;28;20273;-61
2023/11/30 07:54:18;;;;;;;25.30;12.83;;;-0.90;99.90;;;;;;4191621;28;20363;-61
2023/11/30 07:56:20;;;;;;;23.77;11.80;;;-0.80;99.90;;;;;;4191510;28;20668;-62
2023/11/30 07:58:22;;;;;;;28.63;13.40;;;-0.80;99.90;;;;;;4189686;28;20285;-60
2023/11/30 08:00:24;;;;;;;24.33;12.33;;;-0.70;99.90;;;;;;4191534;28;21018;-58
2023/11/30 08:02:25;;;;;;;25.63;12.77;;;-0.60;99.90;;;;;;4191073;28;20835;-60
2023/11/30 08:04:26;;;;;;;27.07;13.10;;;-0.50;99.90;;;;;;4192645;28;20269;-62
2023/11/30 08:06:28;;;;;;;28.33;12.93;;;-0.60;99.90;;;;;;4192327;28;20676;-61
2023/11/30 08:08:29;;;;;;;27.53;14.20;;;-0.50;99.90;;;;;;4192168;28;20293;-61
2023/11/30 08:10:31;;;;;;;30.23;13.73;;;-0.60;99.90;;;;;;4191200;28;20273;-61
2023/11/30 08:12:32;;;;;;;25.67;13.37;;;-0.70;99.90;;;;;;4192008;28;20750;-61
2023/11/30 08:14:33;;;;;;;29.33;13.50;;;-0.70;99.90;;;;;;4192604;28;20315;-59
2023/11/30 08:16:34;;;;;;;31.17;15.00;;;-0.70;99.90;;;;;;4192409;28;20347;-61
2023/11/30 08:18:36;;;;;;;27.60;13.20;;;-0.60;99.90;;;;;;4192347;28;20269;-61
2023/11/30 08:20:37;;;;;;;29.80;14.60;;;-0.60;99.90;;;;;;4192070;28;20257;-60
2023/11/30 08:22:38;;;;;;;31.93;15.13;;;-0.40;99.90;;;;;;4191338;28;20257;-60
2023/11/30 08:24:39;;;;;;;29.33;14.50;;;-0.40;99.90;;;;;;4191609;28;20314;-61
2023/11/30 08:26:41;;;;;;;27.67;13.60;;;-0.50;99.90;;;;;;4192301;28;20795;-61
2023/11/30 08:28:44;;;;;;;25.93;12.43;;;-0.70;99.90;;;;;;4190805;28;20695;-61
2023/11/30 08:30:45;;;;;;;24.80;12.37;;;-0.80;99.90;;;;;;4191648;28;20282;-61
2023/11/30 08:32:46;;;;;;;26.30;12.43;;;-0.90;99.90;;;;;;4190901;28;20327;-61
2023/11/30 08:34:47;;;;;;;26.57;12.90;;;-0.80;99.90;;;;;;4191558;28;20262;-61
2023/11/30 08:36:48;;;;;;;26.97;12.50;;;-0.80;99.90;;;;;;4191058;28;20269;-61
2023/11/30 08:38:50;;;;;;;26.57;12.63;;;-0.70;99.90;;;;;;4192420;28;20737;-61
2023/11/30 08:40:51;;;;;;;19.77;10.73;;;-0.50;99.90;;;;;;4191338;28;20265;-63
2023/11/30 08:42:52;;;;;;;23.63;11.33;;;-0.50;99.90;;;;;;4175624;28;20726;-62
2023/11/30 08:44:53;;;;;;;22.17;10.63;;;-0.50;99.90;;;;;;4175231;28;20327;-61
2023/11/30 08:46:54;;;;;;;25.47;12.27;;;-0.40;99.90;;;;;;4174734;28;20332;-61
2023/11/30 08:48:55;;;;;;;23.87;12.23;;;-0.50;99.90;;;;;;4175391;28;20285;-62
2023/11/30 08:50:56;;;;;;;24.07;11.37;;;-0.40;99.90;;;;;;4175411;28;20267;-61
2023/11/30 08:52:57;;;;;;;22.63;11.40;;;-0.50;99.90;;;;;;4175485;28;20284;-61
2023/11/30 08:54:59;;;;;;;23.70;13.07;;;-0.50;99.90;;;;;;4182353;28;20269;-61
2023/11/30 08:57:00;;;;;;;25.60;12.47;;;-0.70;99.90;;;;;;4191217;28;20281;-60
2023/11/30 08:59:01;;;;;;;21.37;11.60;;;-0.60;99.90;;;;;;4191354;28;20755;-61
2023/11/30 09:01:03;;;;;;;27.93;12.13;;;-0.40;99.90;;;;;;4191064;28;20720;-61
2023/11/30 09:03:05;;;;;;;26.23;11.63;;;-0.30;99.90;;;;;;4191386;28;20265;-60
2023/11/30 09:05:07;;;;;;;27.93;11.70;;;-0.30;99.90;;;;;;4191968;28;20737;-62
2023/11/30 09:07:09;;;;;;;15.87;7.87;;;-0.30;99.90;;;;;;4190560;28;20322;-57
2023/11/30 09:09:10;;;;;;;27.33;8.13;;;-0.10;99.90;;;;;;4192342;28;20266;-60
2023/11/30 09:11:11;;;;;;;14.00;6.10;;;0.10;99.90;;;;;;4193083;28;20323;-63
2023/11/30 09:13:12;;;;;;;11.80;6.33;;;0.30;99.90;;;;;;4193568;28;20286;-60
2023/11/30 09:15:13;;;;;;;16.00;8.40;;;0.50;99.90;;;;;;4192451;28;20285;-60
2023/11/30 09:17:14;;;;;;;12.77;7.20;;;0.60;99.90;;;;;;4194535;28;20683;-60
2023/11/30 09:19:16;;;;;;;18.03;8.17;;;0.70;99.90;;;;;;4193877;28;20292;-61
2023/11/30 09:21:17;;;;;;;15.97;8.57;;;0.70;99.90;;;;;;4194596;28;20339;-60
2023/11/30 09:23:18;;;;;;;16.73;8.30;;;0.70;99.90;;;;;;4194635;28;20680;-59
2023/11/30 09:25:19;;;;;;;17.23;9.77;;;0.50;99.90;;;;;;4194238;28;20327;-58
2023/11/30 09:27:20;;;;;;;19.73;10.13;;;0.40;99.90;;;;;;4193912;28;20269;-55
2023/11/30 09:29:21;;;;;;;22.97;11.27;;;0.40;99.90;;;;;;4194336;28;20273;-58
2023/11/30 09:31:23;;;;;;;22.87;12.80;;;0.20;99.90;;;;;;4194448;28;20755;-58
2023/11/30 09:33:26;;;;;;;23.20;12.20;;;0.10;99.90;;;;;;4194114;28;20664;-58
2023/11/30 09:35:27;;;;;;;21.37;10.97;;;0.10;99.90;;;;;;4194607;28;20253;-58
2023/11/30 09:37:28;;;;;;;20.93;10.47;;;0.10;99.90;;;;;;4194280;28;20330;-60
2023/11/30 09:39:29;;;;;;;21.03;10.47;;;0.20;99.90;;;;;;4194342;28;20319;-55
2023/11/30 09:41:31;;;;;;;18.50;10.57;;;0.40;99.90;;;;;;4193842;28;20261;-55
2023/11/30 09:43:32;;;;;;;16.03;8.57;;;0.40;99.90;;;;;;4193344;28;20269;-54
2023/11/30 09:45:36;;;;;;;17.40;9.73;;;0.60;99.90;;;;;;4192974;28;20807;-57
2023/11/30 09:47:37;;;;;;;18.40;9.20;;;0.70;99.90;;;;;;4175480;28;20294;-57
2023/11/30 09:49:38;;;;;;;18.87;9.20;;;0.70;99.90;;;;;;4192387;28;20282;-60
2023/11/30 09:51:41;;;;;;;18.37;8.93;;;0.70;99.90;;;;;;4175523;28;20347;-58
2023/11/30 09:53:42;;;;;;;21.50;9.30;;;0.80;99.90;;;;;;4193086;28;20273;-59
2023/11/30 09:55:43;;;;;;;17.37;8.87;;;0.70;99.90;;;;;;4192666;28;20281;-58
2023/11/30 09:57:44;;;;;;;20.83;10.40;;;0.60;99.90;;;;;;4192071;28;20265;-59
2023/11/30 09:59:45;;;;;;;18.73;9.83;;;0.60;99.90;;;;;;4192340;28;20323;-58
2023/11/30 10:01:48;;;;;;;16.87;9.30;;;0.50;99.90;;;;;;4193918;28;20307;-59
2023/11/30 10:03:49;;;;;;;18.20;10.43;;;0.60;99.90;;;;;;4193136;28;20299;-58
2023/11/30 10:05:50;;;;;;;21.40;10.13;;;0.60;99.90;;;;;;4189774;28;20673;-60
2023/11/30 10:07:52;;;;;;;21.37;10.77;;;0.60;99.90;;;;;;4192611;28;20306;-59
2023/11/30 10:09:53;;;;;;;17.47;8.87;;;0.60;99.90;;;;;;4193968;28;20258;-58
2023/11/30 10:11:54;;;;;;;17.00;9.40;;;0.60;99.90;;;;;;4193164;28;20307;-59
2023/11/30 10:13:55;;;;;;;19.30;9.23;;;0.60;99.90;;;;;;4181086;28;20362;-56
2023/11/30 10:15:57;;;;;;;20.27;9.77;;;0.60;99.90;;;;;;4192852;28;20388;-56